sensor_id;sensor_type;location;lat;lon;timestamp;pressure;altitude;pressure_sealevel;temperature;humidity
69245;BME280;56357;52.304;4.870;2023-02-13T00:00:13;104031.22;;;17.82;nan
69245;BME280;56357;52.304;4.870;2023-02-13T00:02:40;104027.13;;;17.85;nan
69245;BME280;56357;52.304;4.870;2023-02-13T00:05:07;104029.09;;;17.84;nan
69245;BME280;56357;52.304;4.870;2023-02-13T00:07:33;104033.81;;;17.84;nan
69245;BME280;56357;52.304;4.870;2023-02-13T00:09:59;104035.75;;;17.83;nan
69245;BME280;56357;52.304;4.870;2023-02-13T00:12:26;104021.53;;;17.85;nan
69245;BME280;56357;52.304;4.870;2023-02-13T00:14:52;104022.69;;;17.90;nan
69245;BME280;56357;52.304;4.870;2023-02-13T00:17:19;104008.16;;;17.87;nan
69245;BME280;56357;52.304;4.870;2023-02-13T00:19:45;104017.66;;;17.86;nan
69245;BME280;56357;52.304;4.870;2023-02-13T00:22:12;104020.03;;;17.82;nan
69245;BME280;56357;52.304;4.870;2023-02-13T00:24:40;104013.53;;;17.82;nan
69245;BME280;56357;52.304;4.870;2023-02-13T00:27:07;104020.69;;;17.84;nan
69245;BME280;56357;52.304;4.870;2023-02-13T00:29:33;104018.06;;;17.83;nan
69245;BME280;56357;52.304;4.870;2023-02-13T00:32:00;104021.72;;;17.83;nan
69245;BME280;56357;52.304;4.870;2023-02-13T00:34:27;104019.34;;;17.80;nan
69245;BME280;56357;52.304;4.870;2023-02-13T00:36:53;104013.75;;;17.80;nan
69245;BME280;56357;52.304;4.870;2023-02-13T00:39:20;104008.97;;;17.81;nan
69245;BME280;56357;52.304;4.870;2023-02-13T00:41:46;104014.13;;;17.77;nan
69245;BME280;56357;52.304;4.870;2023-02-13T00:44:13;104019.81;;;17.84;nan
69245;BME280;56357;52.304;4.870;2023-02-13T00:46:39;104014.13;;;17.77;nan
69245;BME280;56357;52.304;4.870;2023-02-13T00:49:05;104020.41;;;17.79;nan
69245;BME280;56357;52.304;4.870;2023-02-13T00:51:32;104017.59;;;17.79;nan
69245;BME280;56357;52.304;4.870;2023-02-13T00:53:58;104013.06;;;17.78;nan
69245;BME280;56357;52.304;4.870;2023-02-13T00:56:26;104011.75;;;17.74;nan
69245;BME280;56357;52.304;4.870;2023-02-13T00:58:52;104011.09;;;17.72;nan
69245;BME280;56357;52.304;4.870;2023-02-13T01:01:18;104012.41;;;17.76;nan
69245;BME280;56357;52.304;4.870;2023-02-13T01:03:45;104008.28;;;17.72;nan
69245;BME280;56357;52.304;4.870;2023-02-13T01:06:11;104011.97;;;17.73;nan
69245;BME280;56357;52.304;4.870;2023-02-13T01:08:39;103999.63;;;17.67;nan
69245;BME280;56357;52.304;4.870;2023-02-13T01:11:06;104007.59;;;17.70;nan
69245;BME280;56357;52.304;4.870;2023-02-13T01:13:33;104008.47;;;17.71;nan
69245;BME280;56357;52.304;4.870;2023-02-13T01:15:59;104009.16;;;17.73;nan
69245;BME280;56357;52.304;4.870;2023-02-13T01:18:26;104003.25;;;17.68;nan
69245;BME280;56357;52.304;4.870;2023-02-13T01:21:05;104007.16;;;17.67;nan
69245;BME280;56357;52.304;4.870;2023-02-13T01:23:34;104004.13;;;17.68;nan
69245;BME280;56357;52.304;4.870;2023-02-13T01:26:05;104011.00;;;17.66;nan
69245;BME280;56357;52.304;4.870;2023-02-13T01:28:33;104011.50;;;17.69;nan
69245;BME280;56357;52.304;4.870;2023-02-13T01:30:59;103992.00;;;17.61;nan
69245;BME280;56357;52.304;4.870;2023-02-13T01:33:27;103997.19;;;17.64;nan
69245;BME280;56357;52.304;4.870;2023-02-13T01:35:54;104001.25;;;17.62;nan
69245;BME280;56357;52.304;4.870;2023-02-13T01:38:20;104000.81;;;17.58;nan
69245;BME280;56357;52.304;4.870;2023-02-13T01:40:52;104001.47;;;17.60;nan
69245;BME280;56357;52.304;4.870;2023-02-13T01:43:19;103991.13;;;17.61;nan
69245;BME280;56357;52.304;4.870;2023-02-13T01:45:50;104003.59;;;17.58;nan
69245;BME280;56357;52.304;4.870;2023-02-13T01:48:25;104006.19;;;17.60;nan
69245;BME280;56357;52.304;4.870;2023-02-13T01:50:57;103999.75;;;17.59;nan
69245;BME280;56357;52.304;4.870;2023-02-13T01:53:29;104002.13;;;17.62;nan
69245;BME280;56357;52.304;4.870;2023-02-13T01:56:00;103986.78;;;17.58;nan
69245;BME280;56357;52.304;4.870;2023-02-13T01:58:31;103998.88;;;17.59;nan
69245;BME280;56357;52.304;4.870;2023-02-13T02:00:59;103994.94;;;17.53;nan
69245;BME280;56357;52.304;4.870;2023-02-13T02:03:33;103996.94;;;17.59;nan
69245;BME280;56357;52.304;4.870;2023-02-13T02:06:01;103990.22;;;17.54;nan
69245;BME280;56357;52.304;4.870;2023-02-13T02:08:29;104005.75;;;17.56;nan
69245;BME280;56357;52.304;4.870;2023-02-13T02:11:01;103997.75;;;17.53;nan
69245;BME280;56357;52.304;4.870;2023-02-13T02:13:30;103996.22;;;17.51;nan
69245;BME280;56357;52.304;4.870;2023-02-13T02:15:57;104000.94;;;17.50;nan
69245;BME280;56357;52.304;4.870;2023-02-13T02:18:23;103988.69;;;17.51;nan
69245;BME280;56357;52.304;4.870;2023-02-13T02:21:39;103986.53;;;17.53;nan
69245;BME280;56357;52.304;4.870;2023-02-13T02:27:15;103999.00;;;17.51;nan
69245;BME280;56357;52.304;4.870;2023-02-13T02:32:56;103996.59;;;17.48;nan
69245;BME280;56357;52.304;4.870;2023-02-13T02:39:11;103977.69;;;17.50;nan
69245;BME280;56357;52.304;4.870;2023-02-13T02:49:58;103976.31;;;17.46;nan
69245;BME280;56357;52.304;4.870;2023-02-13T02:55:40;103968.91;;;17.38;nan
69245;BME280;56357;52.304;4.870;2023-02-13T02:58:24;103977.97;;;17.40;nan
69245;BME280;56357;52.304;4.870;2023-02-13T03:01:14;103973.63;;;17.37;nan
69245;BME280;56357;52.304;4.870;2023-02-13T03:03:59;103970.16;;;17.35;nan
69245;BME280;56357;52.304;4.870;2023-02-13T03:07:00;103967.16;;;17.37;nan
69245;BME280;56357;52.304;4.870;2023-02-13T03:09:31;103976.69;;;17.42;nan
69245;BME280;56357;52.304;4.870;2023-02-13T03:12:21;103979.69;;;17.41;nan
69245;BME280;56357;52.304;4.870;2023-02-13T03:15:05;103979.31;;;17.44;nan
69245;BME280;56357;52.304;4.870;2023-02-13T03:17:32;103974.75;;;17.43;nan
69245;BME280;56357;52.304;4.870;2023-02-13T03:28:53;103966.69;;;17.48;nan
69245;BME280;56357;52.304;4.870;2023-02-13T03:32:26;103967.53;;;17.49;nan
69245;BME280;56357;52.304;4.870;2023-02-13T03:35:07;103971.00;;;17.51;nan
69245;BME280;56357;52.304;4.870;2023-02-13T03:38:02;103965.59;;;17.49;nan
69245;BME280;56357;52.304;4.870;2023-02-13T03:40:40;103966.81;;;17.47;nan
69245;BME280;56357;52.304;4.870;2023-02-13T03:43:31;103960.66;;;17.51;nan
69245;BME280;56357;52.304;4.870;2023-02-13T03:46:00;103962.78;;;17.49;nan
69245;BME280;56357;52.304;4.870;2023-02-13T03:48:31;103963.88;;;17.48;nan
69245;BME280;56357;52.304;4.870;2023-02-13T03:51:38;103971.19;;;17.49;nan
69245;BME280;56357;52.304;4.870;2023-02-13T03:54:25;103964.91;;;17.47;nan
69245;BME280;56357;52.304;4.870;2023-02-13T03:57:13;103958.91;;;17.50;nan
69245;BME280;56357;52.304;4.870;2023-02-13T04:00:00;103960.56;;;17.45;nan
69245;BME280;56357;52.304;4.870;2023-02-13T04:02:32;103960.88;;;17.35;nan
69245;BME280;56357;52.304;4.870;2023-02-13T04:05:10;103956.03;;;17.44;nan
69245;BME280;56357;52.304;4.870;2023-02-13T04:07:38;103959.41;;;17.39;nan
69245;BME280;56357;52.304;4.870;2023-02-13T04:15:47;103956.91;;;17.44;nan
69245;BME280;56357;52.304;4.870;2023-02-13T04:20:44;103948.19;;;17.32;nan
69245;BME280;56357;52.304;4.870;2023-02-13T04:23:11;103947.91;;;17.49;nan
69245;BME280;56357;52.304;4.870;2023-02-13T04:25:40;103946.09;;;17.41;nan
69245;BME280;56357;52.304;4.870;2023-02-13T04:28:08;103947.34;;;17.38;nan
69245;BME280;56357;52.304;4.870;2023-02-13T04:30:35;103947.34;;;17.38;nan
69245;BME280;56357;52.304;4.870;2023-02-13T04:33:01;103952.22;;;17.30;nan
69245;BME280;56357;52.304;4.870;2023-02-13T04:35:28;103946.28;;;17.39;nan
69245;BME280;56357;52.304;4.870;2023-02-13T04:37:54;103939.78;;;17.32;nan
69245;BME280;56357;52.304;4.870;2023-02-13T04:40:21;103947.41;;;17.45;nan
69245;BME280;56357;52.304;4.870;2023-02-13T04:42:48;103954.50;;;17.41;nan
69245;BME280;56357;52.304;4.870;2023-02-13T04:45:15;103954.09;;;17.44;nan
69245;BME280;56357;52.304;4.870;2023-02-13T04:47:41;103949.31;;;17.38;nan
69245;BME280;56357;52.304;4.870;2023-02-13T04:50:08;103944.09;;;17.35;nan
69245;BME280;56357;52.304;4.870;2023-02-13T04:52:35;103945.22;;;17.40;nan
69245;BME280;56357;52.304;4.870;2023-02-13T04:55:01;103935.00;;;17.33;nan
69245;BME280;56357;52.304;4.870;2023-02-13T04:57:28;103932.06;;;17.41;nan
69245;BME280;56357;52.304;4.870;2023-02-13T04:59:54;103939.28;;;17.29;nan
69245;BME280;56357;52.304;4.870;2023-02-13T05:02:20;103944.09;;;17.35;nan
69245;BME280;56357;52.304;4.870;2023-02-13T05:04:47;103929.03;;;17.36;nan
69245;BME280;56357;52.304;4.870;2023-02-13T05:07:13;103926.50;;;17.20;nan
69245;BME280;56357;52.304;4.870;2023-02-13T05:09:40;103930.53;;;17.38;nan
69245;BME280;56357;52.304;4.870;2023-02-13T05:12:06;103936.63;;;17.42;nan
69245;BME280;56357;52.304;4.870;2023-02-13T05:14:33;103928.88;;;17.44;nan
69245;BME280;56357;52.304;4.870;2023-02-13T05:16:59;103931.03;;;17.21;nan
69245;BME280;56357;52.304;4.870;2023-02-13T05:19:26;103941.03;;;17.30;nan
69245;BME280;56357;52.304;4.870;2023-02-13T05:21:52;103935.56;;;17.22;nan
69245;BME280;56357;52.304;4.870;2023-02-13T05:24:36;103938.16;;;17.23;nan
69245;BME280;56357;52.304;4.870;2023-02-13T05:27:02;103939.16;;;17.37;nan
69245;BME280;56357;52.304;4.870;2023-02-13T05:29:29;103929.69;;;17.38;nan
69245;BME280;56357;52.304;4.870;2023-02-13T05:31:57;103933.75;;;17.35;nan
69245;BME280;56357;52.304;4.870;2023-02-13T05:34:25;103931.38;;;17.32;nan
69245;BME280;56357;52.304;4.870;2023-02-13T05:36:53;103935.44;;;17.30;nan
69245;BME280;56357;52.304;4.870;2023-02-13T05:39:20;103932.38;;;17.25;nan
69245;BME280;56357;52.304;4.870;2023-02-13T05:41:47;103932.22;;;17.33;nan
69245;BME280;56357;52.304;4.870;2023-02-13T05:44:14;103933.28;;;17.32;nan
69245;BME280;56357;52.304;4.870;2023-02-13T05:46:41;103930.28;;;17.33;nan
69245;BME280;56357;52.304;4.870;2023-02-13T05:49:09;103934.00;;;17.40;nan
69245;BME280;56357;52.304;4.870;2023-02-13T05:51:36;103921.00;;;17.33;nan
69245;BME280;56357;52.304;4.870;2023-02-13T05:54:03;103928.34;;;17.55;nan
69245;BME280;56357;52.304;4.870;2023-02-13T05:56:29;103929.03;;;17.57;nan
69245;BME280;56357;52.304;4.870;2023-02-13T05:58:56;103937.22;;;17.59;nan
69245;BME280;56357;52.304;4.870;2023-02-13T06:01:23;103940.69;;;17.39;nan
69245;BME280;56357;52.304;4.870;2023-02-13T06:03:49;103939.81;;;17.39;nan
69245;BME280;56357;52.304;4.870;2023-02-13T06:06:16;103935.22;;;17.53;nan
69245;BME280;56357;52.304;4.870;2023-02-13T06:08:43;103934.50;;;17.44;nan
69245;BME280;56357;52.304;4.870;2023-02-13T06:11:10;103933.69;;;17.50;nan
69245;BME280;56357;52.304;4.870;2023-02-13T06:13:36;103923.66;;;17.62;nan
69245;BME280;56357;52.304;4.870;2023-02-13T06:16:08;103932.75;;;17.64;nan
69245;BME280;56357;52.304;4.870;2023-02-13T06:18:36;103938.94;;;17.60;nan
69245;BME280;56357;52.304;4.870;2023-02-13T06:21:03;103929.53;;;17.67;nan
69245;BME280;56357;52.304;4.870;2023-02-13T06:23:30;103927.59;;;17.68;nan
69245;BME280;56357;52.304;4.870;2023-02-13T06:26:04;103933.03;;;17.76;nan
69245;BME280;56357;52.304;4.870;2023-02-13T06:28:31;103927.22;;;17.77;nan
69245;BME280;56357;52.304;4.870;2023-02-13T06:30:58;103937.97;;;17.67;nan
69245;BME280;56357;52.304;4.870;2023-02-13T06:33:25;103935.25;;;17.80;nan
69245;BME280;56357;52.304;4.870;2023-02-13T06:35:51;103931.34;;;17.81;nan
69245;BME280;56357;52.304;4.870;2023-02-13T06:38:18;103933.91;;;17.76;nan
69245;BME280;56357;52.304;4.870;2023-02-13T06:40:46;103928.69;;;17.73;nan
69245;BME280;56357;52.304;4.870;2023-02-13T06:43:12;103934.72;;;17.70;nan
69245;BME280;56357;52.304;4.870;2023-02-13T06:45:39;103939.75;;;17.81;nan
69245;BME280;56357;52.304;4.870;2023-02-13T06:48:06;103931.34;;;17.81;nan
69245;BME280;56357;52.304;4.870;2023-02-13T06:50:33;103937.16;;;17.52;nan
69245;BME280;56357;52.304;4.870;2023-02-13T06:53:00;103929.72;;;17.66;nan
69245;BME280;56357;52.304;4.870;2023-02-13T06:55:27;103933.72;;;17.78;nan
69245;BME280;56357;52.304;4.870;2023-02-13T06:57:53;103935.53;;;17.92;nan
69245;BME280;56357;52.304;4.870;2023-02-13T07:00:20;103931.41;;;17.88;nan
69245;BME280;56357;52.304;4.870;2023-02-13T07:02:46;103940.06;;;17.93;nan
69245;BME280;56357;52.304;4.870;2023-02-13T07:05:13;103925.16;;;17.92;nan
69245;BME280;56357;52.304;4.870;2023-02-13T07:07:41;103935.69;;;17.84;nan
69245;BME280;56357;52.304;4.870;2023-02-13T07:10:10;103938.50;;;17.84;nan
69245;BME280;56357;52.304;4.870;2023-02-13T07:12:36;103943.75;;;17.93;nan
69245;BME280;56357;52.304;4.870;2023-02-13T07:15:04;103940.50;;;17.96;nan
69245;BME280;56357;52.304;4.870;2023-02-13T07:17:30;103948.03;;;17.89;nan
69245;BME280;56357;52.304;4.870;2023-02-13T07:19:58;103945.66;;;17.86;nan
69245;BME280;56357;52.304;4.870;2023-02-13T07:22:24;103951.84;;;17.82;nan
69245;BME280;56357;52.304;4.870;2023-02-13T07:24:50;103950.84;;;17.89;nan
69245;BME280;56357;52.304;4.870;2023-02-13T07:27:17;103952.09;;;17.87;nan
69245;BME280;56357;52.304;4.870;2023-02-13T07:29:43;103948.91;;;17.90;nan
69245;BME280;56357;52.304;4.870;2023-02-13T07:32:10;103958.81;;;17.92;nan
69245;BME280;56357;52.304;4.870;2023-02-13T07:34:36;103951.25;;;17.86;nan
69245;BME280;56357;52.304;4.870;2023-02-13T07:37:02;103956.00;;;17.86;nan
69245;BME280;56357;52.304;4.870;2023-02-13T07:39:29;103948.03;;;17.89;nan
69245;BME280;56357;52.304;4.870;2023-02-13T07:41:56;103951.28;;;17.93;nan
69245;BME280;56357;52.304;4.870;2023-02-13T07:44:23;103955.38;;;17.90;nan
69245;BME280;56357;52.304;4.870;2023-02-13T07:46:49;103961.63;;;17.92;nan
69245;BME280;56357;52.304;4.870;2023-02-13T07:49:15;103959.03;;;17.91;nan
69245;BME280;56357;52.304;4.870;2023-02-13T07:51:42;103954.75;;;17.95;nan
69245;BME280;56357;52.304;4.870;2023-02-13T07:54:08;103958.19;;;17.90;nan
69245;BME280;56357;52.304;4.870;2023-02-13T07:56:35;103966.31;;;17.85;nan
69245;BME280;56357;52.304;4.870;2023-02-13T07:59:01;103974.81;;;17.92;nan
69245;BME280;56357;52.304;4.870;2023-02-13T08:01:27;103978.06;;;17.95;nan
69245;BME280;56357;52.304;4.870;2023-02-13T08:03:54;103973.25;;;17.89;nan
69245;BME280;56357;52.304;4.870;2023-02-13T08:06:21;103975.00;;;17.90;nan
69245;BME280;56357;52.304;4.870;2023-02-13T08:08:48;103976.31;;;17.94;nan
69245;BME280;56357;52.304;4.870;2023-02-13T08:11:34;103971.72;;;17.87;nan
69245;BME280;56357;52.304;4.870;2023-02-13T08:14:25;103985.81;;;17.93;nan
69245;BME280;56357;52.304;4.870;2023-02-13T08:16:53;103987.69;;;17.86;nan
69245;BME280;56357;52.304;4.870;2023-02-13T08:19:20;103989.28;;;17.95;nan
69245;BME280;56357;52.304;4.870;2023-02-13T08:21:47;103989.41;;;17.87;nan
69245;BME280;56357;52.304;4.870;2023-02-13T08:24:13;103994.00;;;17.95;nan
69245;BME280;56357;52.304;4.870;2023-02-13T08:26:40;103984.78;;;18.01;nan
69245;BME280;56357;52.304;4.870;2023-02-13T08:29:07;103987.94;;;17.91;nan
69245;BME280;56357;52.304;4.870;2023-02-13T08:31:34;103970.03;;;17.92;nan
69245;BME280;56357;52.304;4.870;2023-02-13T08:34:00;103977.63;;;17.98;nan
69245;BME280;56357;52.304;4.870;2023-02-13T08:36:27;103973.34;;;18.02;nan
69245;BME280;56357;52.304;4.870;2023-02-13T08:38:54;103972.91;;;17.99;nan
69245;BME280;56357;52.304;4.870;2023-02-13T08:41:20;103968.31;;;17.91;nan
69245;BME280;56357;52.304;4.870;2023-02-13T08:43:48;103987.59;;;18.01;nan
69245;BME280;56357;52.304;4.870;2023-02-13T08:46:18;103983.22;;;17.92;nan
69245;BME280;56357;52.304;4.870;2023-02-13T08:48:44;103970.22;;;17.84;nan
69245;BME280;56357;52.304;4.870;2023-02-13T08:51:12;103978.13;;;18.02;nan
69245;BME280;56357;52.304;4.870;2023-02-13T08:53:39;103974.34;;;17.88;nan
69245;BME280;56357;52.304;4.870;2023-02-13T08:56:07;103973.69;;;17.86;nan
69245;BME280;56357;52.304;4.870;2023-02-13T08:58:33;103975.47;;;17.94;nan
69245;BME280;56357;52.304;4.870;2023-02-13T09:01:03;103973.72;;;17.93;nan
69245;BME280;56357;52.304;4.870;2023-02-13T09:03:29;103974.81;;;17.92;nan
69245;BME280;56357;52.304;4.870;2023-02-13T09:06:00;103968.53;;;17.90;nan
69245;BME280;56357;52.304;4.870;2023-02-13T09:08:27;103964.09;;;18.02;nan
69245;BME280;56357;52.304;4.870;2023-02-13T09:10:58;103974.28;;;18.09;nan
69245;BME280;56357;52.304;4.870;2023-02-13T09:13:27;103975.09;;;18.03;nan
69245;BME280;56357;52.304;4.870;2023-02-13T09:15:57;103970.16;;;18.05;nan
69245;BME280;56357;52.304;4.870;2023-02-13T09:18:23;103966.78;;;18.16;nan
69245;BME280;56357;52.304;4.870;2023-02-13T09:20:59;103985.09;;;18.12;nan
69245;BME280;56357;52.304;4.870;2023-02-13T09:23:26;103975.56;;;18.13;nan
69245;BME280;56357;52.304;4.870;2023-02-13T09:25:52;103980.75;;;18.10;nan
69245;BME280;56357;52.304;4.870;2023-02-13T09:28:19;103979.91;;;18.09;nan
69245;BME280;56357;52.304;4.870;2023-02-13T09:30:45;103982.06;;;18.14;nan
69245;BME280;56357;52.304;4.870;2023-02-13T09:33:13;103969.56;;;18.16;nan
69245;BME280;56357;52.304;4.870;2023-02-13T09:35:39;103973.25;;;18.17;nan
69245;BME280;56357;52.304;4.870;2023-02-13T09:38:06;103976.44;;;18.14;nan
69245;BME280;56357;52.304;4.870;2023-02-13T09:40:52;103979.03;;;18.15;nan
69245;BME280;56357;52.304;4.870;2023-02-13T09:43:34;103971.28;;;18.17;nan
69245;BME280;56357;52.304;4.870;2023-02-13T09:46:14;103965.91;;;18.16;nan
69245;BME280;56357;52.304;4.870;2023-02-13T09:48:44;103965.44;;;18.12;nan
69245;BME280;56357;52.304;4.870;2023-02-13T09:51:17;103967.59;;;18.10;nan
69245;BME280;56357;52.304;4.870;2023-02-13T09:53:56;103972.09;;;18.05;nan
69245;BME280;56357;52.304;4.870;2023-02-13T09:56:36;103966.97;;;18.15;nan
69245;BME280;56357;52.304;4.870;2023-02-13T09:59:28;103970.63;;;18.15;nan
69245;BME280;56357;52.304;4.870;2023-02-13T10:02:01;103965.03;;;18.15;nan
69245;BME280;56357;52.304;4.870;2023-02-13T10:04:46;103961.81;;;18.18;nan
69245;BME280;56357;52.304;4.870;2023-02-13T10:17:55;103951.28;;;19.87;nan
69245;BME280;56357;52.304;4.870;2023-02-13T10:20:38;103950.84;;;19.96;nan
69245;BME280;56357;52.304;4.870;2023-02-13T10:25:59;103948.88;;;20.10;nan
69245;BME280;56357;52.304;4.870;2023-02-13T10:31:05;103961.25;;;19.63;nan
69245;BME280;56357;52.304;4.870;2023-02-13T10:33:52;103940.88;;;20.20;nan
69245;BME280;56357;52.304;4.870;2023-02-13T10:36:25;103952.97;;;20.07;nan
69245;BME280;56357;52.304;4.870;2023-02-13T10:39:17;103944.53;;;20.34;nan
69245;BME280;56357;52.304;4.870;2023-02-13T10:41:54;103941.00;;;20.51;nan
69245;BME280;56357;52.304;4.870;2023-02-13T10:47:11;103942.19;;;19.98;nan
69245;BME280;56357;52.304;4.870;2023-02-13T11:00:48;103943.94;;;19.34;nan
69245;BME280;56357;52.304;4.870;2023-02-13T11:03:26;103937.38;;;19.13;nan
69245;BME280;56357;52.304;4.870;2023-02-13T11:05:54;103938.31;;;19.34;nan
69245;BME280;56357;52.304;4.870;2023-02-13T11:08:31;103934.38;;;19.15;nan
69245;BME280;56357;52.304;4.870;2023-02-13T11:10:58;103942.19;;;19.26;nan
69245;BME280;56357;52.304;4.870;2023-02-13T11:13:27;103930.75;;;19.34;nan
69245;BME280;56357;52.304;4.870;2023-02-13T11:16:08;103932.06;;;19.38;nan
69245;BME280;56357;52.304;4.870;2023-02-13T11:18:40;103923.81;;;19.30;nan
69245;BME280;56357;52.304;4.870;2023-02-13T11:21:13;103929.03;;;19.33;nan
69245;BME280;56357;52.304;4.870;2023-02-13T11:23:43;103931.59;;;19.28;nan
69245;BME280;56357;52.304;4.870;2023-02-13T11:26:13;103923.59;;;19.32;nan
69245;BME280;56357;52.304;4.870;2023-02-13T11:28:52;103915.63;;;19.35;nan
69245;BME280;56357;52.304;4.870;2023-02-13T11:31:36;103909.34;;;19.33;nan
69245;BME280;56357;52.304;4.870;2023-02-13T11:36:52;103906.53;;;19.33;nan
69245;BME280;56357;52.304;4.870;2023-02-13T11:39:25;103902.66;;;19.34;nan
69245;BME280;56357;52.304;4.870;2023-02-13T11:41:51;103903.09;;;19.38;nan
69245;BME280;56357;52.304;4.870;2023-02-13T11:44:26;103905.22;;;19.42;nan
69245;BME280;56357;52.304;4.870;2023-02-13T11:46:55;103893.97;;;19.29;nan
69245;BME280;56357;52.304;4.870;2023-02-13T11:49:28;103902.19;;;19.31;nan
69245;BME280;56357;52.304;4.870;2023-02-13T11:51:58;103893.78;;;19.37;nan
69245;BME280;56357;52.304;4.870;2023-02-13T11:54:38;103892.47;;;19.33;nan
69245;BME280;56357;52.304;4.870;2023-02-13T11:57:27;103884.47;;;19.30;nan
69245;BME280;56357;52.304;4.870;2023-02-13T11:59:54;103893.56;;;19.39;nan
69245;BME280;56357;52.304;4.870;2023-02-13T12:02:28;103887.09;;;19.38;nan
69245;BME280;56357;52.304;4.870;2023-02-13T12:05:19;103883.63;;;19.43;nan
69245;BME280;56357;52.304;4.870;2023-02-13T12:07:46;103885.16;;;19.45;nan
69245;BME280;56357;52.304;4.870;2023-02-13T12:10:30;103878.88;;;19.50;nan
69245;BME280;56357;52.304;4.870;2023-02-13T12:13:05;103882.34;;;19.45;nan
69245;BME280;56357;52.304;4.870;2023-02-13T12:15:37;103873.69;;;19.47;nan
69245;BME280;56357;52.304;4.870;2023-02-13T12:18:29;103870.63;;;19.48;nan
69245;BME280;56357;52.304;4.870;2023-02-13T12:23:55;103865.28;;;19.40;nan
69245;BME280;56357;52.304;4.870;2023-02-13T12:26:43;103872.13;;;19.31;nan
69245;BME280;56357;52.304;4.870;2023-02-13T12:29:44;103863.06;;;19.42;nan
69245;BME280;56357;52.304;4.870;2023-02-13T12:32:37;103857.91;;;19.46;nan
69245;BME280;56357;52.304;4.870;2023-02-13T12:35:34;103858.53;;;19.41;nan
69245;BME280;56357;52.304;4.870;2023-02-13T12:46:30;103847.75;;;19.38;nan
69245;BME280;56357;52.304;4.870;2023-02-13T13:05:59;103843.84;;;19.33;nan
69245;BME280;56357;52.304;4.870;2023-02-13T13:08:39;103837.75;;;19.29;nan
69245;BME280;56357;52.304;4.870;2023-02-13T13:14:17;103838.22;;;19.26;nan
69245;BME280;56357;52.304;4.870;2023-02-13T13:17:07;103837.97;;;19.28;nan
69245;BME280;56357;52.304;4.870;2023-02-13T13:22:48;103832.59;;;19.26;nan
69245;BME280;56357;52.304;4.870;2023-02-13T13:25:46;103827.84;;;19.27;nan
69245;BME280;56357;52.304;4.870;2023-02-13T13:28:18;103818.34;;;19.34;nan
69245;BME280;56357;52.304;4.870;2023-02-13T13:30:46;103820.47;;;19.26;nan
69245;BME280;56357;52.304;4.870;2023-02-13T13:33:21;103821.56;;;19.25;nan
69245;BME280;56357;52.304;4.870;2023-02-13T13:38:36;103815.50;;;19.21;nan
69245;BME280;56357;52.304;4.870;2023-02-13T13:49:28;103792.41;;;19.19;nan
69245;BME280;56357;52.304;4.870;2023-02-13T13:52:33;103789.59;;;19.19;nan
69245;BME280;56357;52.304;4.870;2023-02-13T13:55:02;103782.22;;;19.18;nan
69245;BME280;56357;52.304;4.870;2023-02-13T14:00:01;103786.31;;;19.15;nan
69245;BME280;56357;52.304;4.870;2023-02-13T14:05:29;103774.88;;;19.10;nan
69245;BME280;56357;52.304;4.870;2023-02-13T14:07:57;103770.97;;;19.11;nan
69245;BME280;56357;52.304;4.870;2023-02-13T14:12:59;103773.78;;;19.11;nan
69245;BME280;56357;52.304;4.870;2023-02-13T14:18:03;103770.13;;;19.11;nan
69245;BME280;56357;52.304;4.870;2023-02-13T14:20:33;103771.44;;;19.15;nan
69245;BME280;56357;52.304;4.870;2023-02-13T14:25:49;103770.13;;;19.11;nan
69245;BME280;56357;52.304;4.870;2023-02-13T14:28:21;103772.09;;;19.17;nan
69245;BME280;56357;52.304;4.870;2023-02-13T14:30:50;103783.31;;;19.17;nan
69245;BME280;56357;52.304;4.870;2023-02-13T14:33:26;103778.97;;;19.21;nan
69245;BME280;56357;52.304;4.870;2023-02-13T14:36:03;103772.72;;;19.12;nan
69245;BME280;56357;52.304;4.870;2023-02-13T14:38:33;103774.88;;;19.10;nan
69245;BME280;56357;52.304;4.870;2023-02-13T14:41:00;103778.75;;;19.16;nan
69245;BME280;56357;52.304;4.870;2023-02-13T14:43:49;103773.78;;;19.11;nan
69245;BME280;56357;52.304;4.870;2023-02-13T14:46:36;103775.97;;;19.16;nan
69245;BME280;56357;52.304;4.870;2023-02-13T14:51:49;103768.63;;;19.15;nan
69245;BME280;56357;52.304;4.870;2023-02-13T14:54:26;103768.63;;;19.15;nan
69245;BME280;56357;52.304;4.870;2023-02-13T14:57:03;103768.19;;;19.18;nan
69245;BME280;56357;52.304;4.870;2023-02-13T14:59:33;103769.47;;;19.22;nan
69245;BME280;56357;52.304;4.870;2023-02-13T15:02:16;103760.16;;;19.28;nan
69245;BME280;56357;52.304;4.870;2023-02-13T15:04:46;103753.47;;;19.29;nan
69245;BME280;56357;52.304;4.870;2023-02-13T15:07:18;103761.25;;;19.27;nan
69245;BME280;56357;52.304;4.870;2023-02-13T15:09:52;103765.16;;;19.26;nan
69245;BME280;56357;52.304;4.870;2023-02-13T15:12:25;103761.28;;;19.21;nan
69245;BME280;56357;52.304;4.870;2023-02-13T15:14:53;103753.47;;;19.16;nan
69245;BME280;56357;52.304;4.870;2023-02-13T15:17:22;103748.97;;;19.15;nan
69245;BME280;56357;52.304;4.870;2023-02-13T15:19:56;103757.78;;;19.25;nan
69245;BME280;56357;52.304;4.870;2023-02-13T15:22:36;103743.31;;;19.28;nan
69245;BME280;56357;52.304;4.870;2023-02-13T15:25:05;103756.72;;;19.26;nan
69245;BME280;56357;52.304;4.870;2023-02-13T15:27:39;103748.28;;;19.26;nan
69245;BME280;56357;52.304;4.870;2023-02-13T15:30:19;103751.31;;;19.25;nan
69245;BME280;56357;52.304;4.870;2023-02-13T15:32:53;103739.22;;;19.17;nan
69245;BME280;56357;52.304;4.870;2023-02-13T15:35:22;103744.63;;;19.12;nan
69245;BME280;56357;52.304;4.870;2023-02-13T15:37:49;103743.97;;;19.10;nan
69245;BME280;56357;52.304;4.870;2023-02-13T15:40:28;103737.25;;;19.31;nan
69245;BME280;56357;52.304;4.870;2023-02-13T15:42:56;103742.66;;;19.39;nan
69245;BME280;56357;52.304;4.870;2023-02-13T15:45:24;103740.72;;;19.27;nan